New York City, New York
Current Conditions -  °F | °C
As of 11:51 AM on Tuesday 21 Oct 2014 (Local Time) from KNYC Reporting Station
Overcast Overcast  
Wind Chill: 64°   Ceiling: 3800
Heat Index: 64°   Visibility: 10mi
Dew Point: 50°   Wind: 3mph
Humidity: 60%   Direction: NA
Pressure: 29.9"   Gusts: NA
Location:  40.71°N, 74.01°W
Report Text: KNYC 211551Z AUTO VRB03KT 10SM BKN038 OVC047 18/10 A2990 RMK AO2 SLP116 T01780100 $
Loading
Personal Weather Stations






























Interactive Weather Map New forecast layout! Learn more

10-Day Weather Forecast

Advertisements
Track Severe Weather on mobile